Impacts METAR Board
IDs:

KIAD - Washington/Dulles In, VA, US

Updated at: 1600 UTC 20 Aug 2019
Potential Impact None Slight Moderate High
Time 20/04Z 20/05Z 20/06Z 20/07Z 20/08Z 20/09Z 20/10Z 20/11Z 20/12Z 20/13Z 20/14Z 20/15Z 20/16Z
Temp76 75 73 72 72 73 71 71 75 80 84 88 89
Dewpt68 69 70 69 69 69 68 68 70 71 70 72 72
Altim30.04 30.04 30.05 30.05 30.05 30.06 30.07 30.08 30.10 30.10 30.10 30.11 30.10
VIS10 10 10 10 10 10 10 10 10 10 10 10 10
CIG250 170 250 250 250 250 250 250 -- -- -- -- --
CoverBKNBKNOVCOVCBKNBKNBKNBKNSCTSCTSCTFEWFEW
FltCatVFRVFRVFRVFRVFRVFRVFRVFRVFRVFRVFRVFRVFR
WX--------------------------
WDir050270003300310310360060140
WSpd0 5 3 0 0 3 0 3 5 5 3 5 5
WGst-- -- -- -- -- -- -- -- -- -- -- -- --
Raw hourly METARs
KIAD 200352Z 00000KT 10SM FEW060 SCT100 SCT160 BKN250 24/20 A3004 RMK AO2 TSE39 SLP168 T02440200
KIAD 200452Z 05005KT 10SM SCT050 SCT120 BKN170 BKN250 24/21 A3004 RMK AO2 SLP168 T02390206 403500206
KIAD 200552Z 27003KT 10SM SCT050 SCT130 OVC250 23/21 A3005 RMK AO2 SLP170 60000 T02280211 10306 20228 55004
KIAD 200655Z 00000KT 10SM FEW130 OVC250 22/21 A3005 RMK AO2 T02220206
KIAD 200752Z 00000KT 10SM BKN250 22/21 A3005 RMK AO2 SLP172 T02220206
KIAD 200852Z 33003KT 10SM BKN250 23/21 A3006 RMK AO2 SLP175 T02280206 53004
KIAD 200952Z 00000KT 10SM FEW050 BKN250 22/20 A3007 RMK AO2 SLP177 T02170200
KIAD 201052Z 31003KT 10SM SCT160 BKN250 22/20 A3008 RMK AO2 SLP182 T02170200
KIAD 201152Z 31005KT 10SM SCT150 SCT250 24/21 A3010 RMK AO2 SLP188 T02390211 10239 20211 53013
KIAD 201252Z 36005KT 10SM FEW160 SCT250 27/22 A3010 RMK AO2 SLP190 T02670217
KIAD 201352Z VRB03KT 10SM FEW170 SCT250 29/21 A3010 RMK AO2 SLP190 T02890211
KIAD 201452Z 06005KT 10SM FEW200 31/22 A3011 RMK AO2 SLP191 T03110222 51003
KIAD 201552Z 14005KT 10SM FEW250 32/22 A3010 RMK AO2 SLP188 T03170222



Page loaded:  16:59 UTC  |   09:59 AM Pacific  |   10:59 AM Mountain  |   11:59 AM Central  |   12:59 PM Eastern

 

ADVISORIES

FORECASTS

FORECASTS

OBSERVATIONS

USER TOOLS

ABOUT US